Time;durP1;ratioP1;P1;durP2;ratioP2;P2;SDS_P1;SDS_P2;PMS_P1;PMS_P2;Temp;Humidity;BMP_temperature;BMP_pressure;BME280_temperature;BME280_humidity;BME280_pressure;Samples;Min_cycle;Max_cycle;Signal;HPM_P1;HPM_P2
2021/03/20 00:00:38;;;;;;;10.90;6.18;;;1.20;72.60;;;;;;4995301;28;20168;-89
2021/03/20 00:03:04;;;;;;;10.43;5.68;;;1.20;72.70;;;;;;4995575;28;20044;-90
2021/03/20 00:05:30;;;;;;;9.27;5.30;;;1.20;72.80;;;;;;4995441;28;20022;-89
2021/03/20 00:07:56;;;;;;;6.82;4.60;;;1.20;72.80;;;;;;4996716;28;20169;-89
2021/03/20 00:10:24;;;;;;;7.30;4.55;;;1.20;72.70;;;;;;4986232;28;20053;-90
2021/03/20 00:12:50;;;;;;;5.15;3.85;;;1.20;72.80;;;;;;4979820;28;20045;-89
2021/03/20 00:15:20;;;;;;;5.53;3.72;;;1.20;72.70;;;;;;4979973;28;20026;-89
2021/03/20 00:17:46;;;;;;;6.32;4.20;;;1.20;72.70;;;;;;4997030;28;20065;-89
2021/03/20 00:20:15;;;;;;;6.97;4.13;;;1.30;72.80;;;;;;4979830;28;20058;-89
2021/03/20 00:22:40;;;;;;;6.43;4.28;;;1.30;72.90;;;;;;4979830;28;20139;-88
2021/03/20 00:25:07;;;;;;;5.68;3.90;;;1.30;72.90;;;;;;4995507;28;20054;-88
2021/03/20 00:27:33;;;;;;;9.90;4.15;;;1.40;73.00;;;;;;4998855;28;20559;-88
2021/03/20 00:29:59;;;;;;;6.80;4.00;;;1.40;72.90;;;;;;5003150;28;20122;-88
2021/03/20 00:32:25;;;;;;;6.25;3.92;;;1.50;72.90;;;;;;4991553;28;20050;-88
2021/03/20 00:34:51;;;;;;;6.97;4.45;;;1.50;72.90;;;;;;4998960;28;20025;-88
2021/03/20 00:37:16;;;;;;;5.85;4.00;;;1.60;73.00;;;;;;4999162;28;20030;-88
2021/03/20 00:39:43;;;;;;;5.68;4.18;;;1.60;72.80;;;;;;4998823;28;20384;-88
2021/03/20 00:42:09;;;;;;;7.05;4.40;;;1.60;72.90;;;;;;4998787;28;20022;-88
2021/03/20 00:44:35;;;;;;;7.28;4.00;;;1.70;72.90;;;;;;4998494;28;20025;-88
2021/03/20 00:47:01;;;;;;;6.30;4.32;;;1.70;72.90;;;;;;4998972;28;20456;-88
2021/03/20 00:49:26;;;;;;;7.90;4.90;;;1.70;72.90;;;;;;4999009;28;20029;-88
2021/03/20 00:51:52;;;;;;;7.72;4.80;;;1.70;72.90;;;;;;4998685;28;20477;-90
2021/03/20 00:54:18;;;;;;;7.53;4.82;;;1.70;72.90;;;;;;4998587;28;20036;-88
2021/03/20 00:56:43;;;;;;;7.80;4.57;;;1.70;72.90;;;;;;4998559;28;20029;-88
2021/03/20 00:59:09;;;;;;;6.80;4.68;;;1.60;73.10;;;;;;4990324;28;20405;-88
2021/03/20 01:01:34;;;;;;;8.35;4.53;;;1.60;73.30;;;;;;4979208;28;20065;-88
2021/03/20 01:04:00;;;;;;;7.45;4.65;;;1.60;73.20;;;;;;4979387;28;20025;-89
2021/03/20 01:06:27;;;;;;;6.68;4.10;;;1.60;73.40;;;;;;4979119;28;20118;-88
2021/03/20 01:08:55;;;;;;;5.95;4.32;;;1.60;73.40;;;;;;4979031;28;20054;-88
2021/03/20 01:11:24;;;;;;;7.90;4.53;;;1.60;73.50;;;;;;4978971;28;20033;-88
2021/03/20 01:13:49;;;;;;;7.97;4.60;;;1.70;73.80;;;;;;4992460;28;20030;-88
2021/03/20 01:16:16;;;;;;;7.30;4.53;;;1.70;73.60;;;;;;4998612;28;20034;-88
2021/03/20 01:18:41;;;;;;;5.93;4.15;;;1.70;73.60;;;;;;4997438;28;20032;-88
2021/03/20 01:21:09;;;;;;;6.25;4.28;;;1.70;73.60;;;;;;4997212;28;20025;-89
2021/03/20 01:23:35;;;;;;;6.28;4.18;;;1.80;73.60;;;;;;5015845;28;20116;-90
2021/03/20 01:26:01;;;;;;;8.23;4.88;;;1.80;73.60;;;;;;4998048;28;20507;-88
2021/03/20 01:28:29;;;;;;;7.45;4.70;;;1.80;73.60;;;;;;4998159;28;20026;-88
2021/03/20 01:30:54;;;;;;;6.47;4.50;;;1.80;73.70;;;;;;4997992;28;20049;-88
2021/03/20 01:33:20;;;;;;;8.35;4.70;;;1.80;73.60;;;;;;4997979;28;20484;-88
2021/03/20 01:35:47;;;;;;;5.43;3.97;;;1.80;73.60;;;;;;4997870;28;20033;-89
2021/03/20 01:38:12;;;;;;;4.30;3.63;;;1.80;73.50;;;;;;4989812;28;20053;-88
2021/03/20 01:40:54;;;;;;;5.88;4.00;;;1.80;73.60;;;;;;4978710;28;20473;-88
2021/03/20 01:43:22;;;;;;;5.85;4.20;;;1.70;73.60;;;;;;4978480;28;20065;-89
2021/03/20 01:45:47;;;;;;;6.50;4.25;;;1.70;73.70;;;;;;4978313;28;20033;-88
2021/03/20 01:48:24;;;;;;;5.63;3.95;;;1.70;73.80;;;;;;4978340;28;20030;-88
2021/03/20 01:50:59;;;;;;;7.22;4.43;;;1.70;73.90;;;;;;4978118;28;20054;-88
2021/03/20 01:53:42;;;;;;;5.88;3.88;;;1.80;73.90;;;;;;4977991;28;20029;-88
2021/03/20 01:56:14;;;;;;;6.15;3.75;;;1.80;73.80;;;;;;4982494;28;20492;-88
2021/03/20 01:58:40;;;;;;;5.95;4.10;;;1.70;73.70;;;;;;4997655;28;20025;-88
2021/03/20 02:01:23;;;;;;;5.47;3.92;;;1.80;73.80;;;;;;4997603;28;20401;-88
2021/03/20 02:03:50;;;;;;;5.55;4.10;;;1.80;73.90;;;;;;4997370;28;20028;-88
2021/03/20 02:06:16;;;;;;;7.20;4.30;;;1.70;73.80;;;;;;4997379;28;20029;-88
2021/03/20 02:08:44;;;;;;;6.05;4.18;;;1.70;73.70;;;;;;4997216;28;20030;-88
2021/03/20 02:11:43;;;;;;;7.28;3.88;;;1.70;73.70;;;;;;4997200;28;20092;-88
2021/03/20 02:14:45;;;;;;;7.20;3.75;;;1.70;73.80;;;;;;4997220;28;20041;-88
2021/03/20 02:17:15;;;;;;;5.18;3.97;;;1.70;73.80;;;;;;4997596;28;20025;-88
2021/03/20 02:20:00;;;;;;;6.05;4.10;;;1.70;73.70;;;;;;4996759;28;20037;-89
2021/03/20 02:22:50;;;;;;;4.15;3.65;;;1.70;74.00;;;;;;4997457;28;20018;-88
2021/03/20 02:25:43;;;;;;;6.53;4.03;;;1.70;74.00;;;;;;4996819;28;20022;-88
2021/03/20 02:28:39;;;;;;;4.97;4.05;;;1.70;74.40;;;;;;4997211;28;20447;-90
2021/03/20 02:31:23;;;;;;;6.13;3.92;;;1.60;73.80;;;;;;4996257;28;20036;-88
2021/03/20 02:33:57;;;;;;;4.75;3.65;;;1.60;73.90;;;;;;4996667;28;20042;-88
2021/03/20 02:36:32;;;;;;;6.13;4.18;;;1.60;74.00;;;;;;4996746;28;20044;-89
2021/03/20 02:39:44;;;;;;;4.85;3.88;;;1.60;74.00;;;;;;4996922;28;20030;-89
2021/03/20 02:42:29;;;;;;;6.38;3.92;;;1.50;74.00;;;;;;4996237;28;20496;-88
2021/03/20 02:45:10;;;;;;;5.38;3.67;;;1.60;74.00;;;;;;4996827;28;20473;-89
2021/03/20 02:47:53;;;;;;;5.45;3.88;;;1.50;74.00;;;;;;4996756;28;20034;-88
2021/03/20 02:50:22;;;;;;;4.82;3.63;;;1.50;74.20;;;;;;4996514;28;20029;-88
2021/03/20 02:52:51;;;;;;;6.63;4.00;;;1.50;74.10;;;;;;4996700;28;20449;-88
2021/03/20 02:55:45;;;;;;;5.75;3.97;;;1.60;74.10;;;;;;4996437;28;20026;-89
2021/03/20 02:58:17;;;;;;;5.20;3.63;;;1.50;74.10;;;;;;4994094;28;20034;-88
2021/03/20 03:00:54;;;;;;;5.63;4.05;;;1.60;74.20;;;;;;4996895;28;20041;-88
2021/03/20 03:03:31;;;;;;;5.47;4.10;;;1.60;74.20;;;;;;4996314;28;20156;-89
2021/03/20 03:06:00;;;;;;;5.03;3.95;;;1.60;74.20;;;;;;4996555;28;20026;-87
2021/03/20 03:08:32;;;;;;;6.43;4.22;;;1.60;74.10;;;;;;4996278;28;20033;-89
2021/03/20 03:11:12;;;;;;;7.05;3.88;;;1.60;74.00;;;;;;4996241;28;20034;-88
2021/03/20 03:13:44;;;;;;;6.10;3.88;;;1.60;74.10;;;;;;4996339;28;20562;-88
2021/03/20 03:16:24;;;;;;;4.25;3.70;;;1.60;74.00;;;;;;4996521;28;20225;-88
2021/03/20 03:18:55;;;;;;;5.85;3.83;;;1.60;73.90;;;;;;4996230;28;20121;-88
2021/03/20 03:21:24;;;;;;;4.78;3.53;;;1.50;73.80;;;;;;4995757;28;20026;-89
2021/03/20 03:23:49;;;;;;;4.28;3.42;;;1.50;73.70;;;;;;4996187;28;20026;-87
2021/03/20 03:26:24;;;;;;;4.88;2.92;;;1.40;73.80;;;;;;4996091;28;20021;-89
2021/03/20 03:29:00;;;;;;;4.95;3.33;;;1.30;74.00;;;;;;5013620;28;20022;-88
2021/03/20 03:31:37;;;;;;;2.85;2.58;;;1.30;74.00;;;;;;4995890;28;20544;-88
2021/03/20 03:34:06;;;;;;;3.75;3.17;;;1.20;73.80;;;;;;4996127;28;20044;-88
2021/03/20 03:36:49;;;;;;;4.72;2.80;;;1.10;73.70;;;;;;4996127;28;20046;-88
2021/03/20 03:39:25;;;;;;;4.05;3.08;;;1.00;73.90;;;;;;5013432;28;20029;-88
2021/03/20 03:41:50;;;;;;;3.35;2.28;;;1.00;73.70;;;;;;4995806;28;20044;-88
2021/03/20 03:44:16;;;;;;;3.58;2.90;;;0.90;73.70;;;;;;4995738;28;20025;-88
2021/03/20 03:46:46;;;;;;;3.08;2.60;;;0.90;73.70;;;;;;4995557;28;20085;-88
2021/03/20 03:49:17;;;;;;;3.97;2.70;;;0.80;73.70;;;;;;4995537;28;20062;-89
2021/03/20 03:51:43;;;;;;;2.90;2.38;;;0.80;73.40;;;;;;4995816;28;20030;-89
2021/03/20 03:54:08;;;;;;;2.38;2.17;;;0.70;73.30;;;;;;4995908;28;20034;-88
2021/03/20 03:56:53;;;;;;;4.03;2.22;;;0.60;73.40;;;;;;4997376;28;20518;-89
2021/03/20 03:59:57;;;;;;;2.42;2.22;;;0.60;73.40;;;;;;5014248;28;20060;-88
2021/03/20 04:02:56;;;;;;;3.58;2.15;;;0.60;73.50;;;;;;4996231;28;20109;-88
2021/03/20 04:05:24;;;;;;;2.85;2.20;;;0.60;73.60;;;;;;4996288;28;20026;-88
2021/03/20 04:08:16;;;;;;;3.42;2.40;;;0.60;73.40;;;;;;4996318;28;20117;-89
2021/03/20 04:11:11;;;;;;;2.78;2.40;;;0.50;73.30;;;;;;4996534;28;20420;-88
2021/03/20 04:13:46;;;;;;;2.55;2.20;;;0.50;73.40;;;;;;4997516;28;20037;-88
2021/03/20 04:16:17;;;;;;;4.45;2.75;;;0.50;73.30;;;;;;4997063;28;20397;-90
2021/03/20 04:18:57;;;;;;;3.20;2.63;;;0.50;73.20;;;;;;4996082;28;20022;-90
2021/03/20 04:21:29;;;;;;;3.90;2.50;;;0.60;73.30;;;;;;4996664;28;20045;-88
2021/03/20 04:24:02;;;;;;;2.77;2.23;;;0.50;73.20;;;;;;4998021;28;20493;-88
2021/03/20 04:26:43;;;;;;;2.97;2.13;;;0.50;73.00;;;;;;4997603;28;20433;-89
2021/03/20 04:29:21;;;;;;;2.93;2.33;;;0.50;73.00;;;;;;4997169;28;20033;-88
2021/03/20 04:31:56;;;;;;;4.25;2.15;;;0.50;73.00;;;;;;4981512;28;20030;-90
2021/03/20 04:34:38;;;;;;;4.30;2.00;;;0.50;72.90;;;;;;4976357;28;20026;-88
2021/03/20 04:37:09;;;;;;;2.33;2.10;;;0.40;72.80;;;;;;4976034;28;20034;-88
2021/03/20 04:39:43;;;;;;;3.03;2.35;;;0.40;72.90;;;;;;4976094;28;20026;-88
2021/03/20 04:42:10;;;;;;;4.80;2.40;;;0.40;72.90;;;;;;4976253;28;20032;-90
2021/03/20 04:44:37;;;;;;;3.28;2.40;;;0.40;72.90;;;;;;4977438;28;20422;-88
2021/03/20 04:47:15;;;;;;;2.58;2.13;;;0.40;72.90;;;;;;4994577;28;20026;-87
2021/03/20 04:49:44;;;;;;;2.45;2.15;;;0.40;72.80;;;;;;4982658;28;20093;-88
2021/03/20 04:52:26;;;;;;;3.78;2.30;;;0.40;72.70;;;;;;5012520;28;20034;-89
2021/03/20 04:54:52;;;;;;;2.72;2.25;;;0.40;72.50;;;;;;4989411;28;20030;-87
2021/03/20 04:57:48;;;;;;;2.92;2.50;;;0.40;72.50;;;;;;4995105;28;20500;-87
2021/03/20 05:00:50;;;;;;;2.97;2.30;;;0.40;72.50;;;;;;5015856;28;20125;-88
2021/03/20 05:03:27;;;;;;;2.75;2.22;;;0.40;72.50;;;;;;4988359;28;20025;-87
2021/03/20 05:06:00;;;;;;;3.92;2.22;;;0.40;72.30;;;;;;4978790;28;20026;-88
2021/03/20 05:08:37;;;;;;;3.72;2.53;;;0.40;72.40;;;;;;4978613;28;20140;-88
2021/03/20 05:11:08;;;;;;;3.60;2.67;;;0.40;72.40;;;;;;4978515;28;20031;-88
2021/03/20 05:13:49;;;;;;;7.45;3.20;;;0.40;72.40;;;;;;4978738;28;20113;-87
2021/03/20 05:16:17;;;;;;;7.03;2.88;;;0.50;72.50;;;;;;4978372;28;20033;-88
2021/03/20 05:18:49;;;;;;;3.88;2.40;;;0.40;72.50;;;;;;4978299;28;20037;-88
2021/03/20 05:21:25;;;;;;;3.35;2.53;;;0.40;72.60;;;;;;4979036;28;20031;-88
2021/03/20 05:23:51;;;;;;;4.65;2.50;;;0.50;72.70;;;;;;4978068;28;20022;-89
2021/03/20 05:26:17;;;;;;;2.78;2.50;;;0.50;72.60;;;;;;4978280;28;20042;-89
2021/03/20 05:28:43;;;;;;;3.80;2.58;;;0.50;72.60;;;;;;4978174;28;20027;-87
2021/03/20 05:31:09;;;;;;;3.00;2.75;;;0.50;72.60;;;;;;5013902;28;20036;-89
2021/03/20 05:33:38;;;;;;;4.20;2.67;;;0.60;72.60;;;;;;4990722;28;20117;-88
2021/03/20 05:36:04;;;;;;;3.58;2.97;;;0.60;72.60;;;;;;4995392;28;20041;-88
2021/03/20 05:38:30;;;;;;;2.67;2.47;;;0.70;72.50;;;;;;4997613;28;20508;-87
2021/03/20 05:41:21;;;;;;;5.53;2.67;;;0.70;72.50;;;;;;4994097;28;20084;-88
2021/03/20 05:44:23;;;;;;;3.38;2.65;;;0.70;72.40;;;;;;4981183;28;20026;-88
2021/03/20 05:47:21;;;;;;;2.78;2.55;;;0.70;72.40;;;;;;4997299;28;20087;-90
2021/03/20 05:50:24;;;;;;;4.18;3.05;;;0.70;72.30;;;;;;4964136;28;20504;-88
2021/03/20 05:53:06;;;;;;;;;;;0.70;72.20;;;;;;4991376;28;20485;-88
2021/03/20 05:55:48;;;;;;;4.38;2.80;;;0.70;72.30;;;;;;4977976;28;19910;-91
2021/03/20 05:58:44;;;;;;;3.88;2.92;;;0.70;72.10;;;;;;4979168;28;20092;-88
2021/03/20 06:01:41;;;;;;;3.25;2.60;;;0.60;72.10;;;;;;4977158;28;20121;-88
2021/03/20 06:04:34;;;;;;;6.00;2.63;;;0.50;72.20;;;;;;4994365;28;20081;-88
2021/03/20 06:07:50;;;;;;;4.45;2.90;;;0.60;72.60;;;;;;4995993;28;20025;-88
2021/03/20 06:10:38;;;;;;;4.63;2.80;;;0.60;72.50;;;;;;4950580;28;20046;-89
2021/03/20 06:13:15;;;;;;;2.85;2.55;;;0.60;72.20;;;;;;4982020;28;20409;-87
2021/03/20 06:16:00;;;;;;;3.78;2.72;;;0.60;72.00;;;;;;4990070;28;20026;-88
2021/03/20 06:18:47;;;;;;;3.60;3.00;;;0.60;72.00;;;;;;4992506;28;20029;-88
2021/03/20 06:21:50;;;;;;;4.95;2.75;;;0.60;72.00;;;;;;4986998;28;20033;-88
2021/03/20 06:24:42;;;;;;;3.53;2.63;;;0.50;71.90;;;;;;4976834;28;20026;-88
2021/03/20 06:27:10;;;;;;;;;;;0.60;71.80;;;;;;4978679;28;20658;-88
2021/03/20 06:29:58;;;;;;;4.43;2.90;;;0.60;71.60;;;;;;5007552;28;19941;-88
2021/03/20 06:32:27;;;;;;;3.55;2.83;;;0.50;71.40;;;;;;4995364;28;20036;-88
2021/03/20 06:35:31;;;;;;;3.15;2.85;;;0.50;71.50;;;;;;4990452;28;20037;-87
2021/03/20 06:37:59;;;;;;;3.28;2.97;;;0.60;71.60;;;;;;4979575;28;20026;-88
2021/03/20 06:40:47;;;;;;;5.13;2.70;;;0.60;71.30;;;;;;4987284;28;20019;-89
2021/03/20 06:43:15;;;;;;;6.13;2.92;;;0.70;71.20;;;;;;4982474;28;20018;-89
2021/03/20 06:45:41;;;;;;;6.05;3.30;;;0.70;71.10;;;;;;4984238;28;20037;-89
2021/03/20 06:48:13;;;;;;;5.20;2.72;;;0.60;70.80;;;;;;4984326;28;20358;-91
2021/03/20 06:50:43;;;;;;;4.53;2.67;;;0.60;70.60;;;;;;4976978;28;20097;-89
2021/03/20 06:53:12;;;;;;;3.17;2.70;;;0.80;70.70;;;;;;4983654;28;20117;-89
2021/03/20 06:55:46;;;;;;;3.20;2.70;;;1.10;70.10;;;;;;4976979;28;20019;-90
2021/03/20 06:58:26;;;;;;;3.42;3.00;;;1.30;69.50;;;;;;4985260;28;20048;-90
2021/03/20 07:00:53;;;;;;;4.20;2.67;;;1.60;69.00;;;;;;4984038;28;20040;-87
2021/03/20 07:03:41;;;;;;;4.82;3.13;;;1.80;68.50;;;;;;4987024;28;20353;-89
2021/03/20 07:06:16;;;;;;;4.18;2.88;;;2.10;68.00;;;;;;4996554;28;20033;-89
2021/03/20 07:09:05;;;;;;;3.83;2.65;;;2.30;67.70;;;;;;5015985;28;20030;-88
2021/03/20 07:11:40;;;;;;;3.60;3.03;;;2.30;67.50;;;;;;4993594;28;20036;-88
2021/03/20 07:14:09;;;;;;;4.72;3.13;;;2.20;67.70;;;;;;4995381;28;20121;-89
2021/03/20 07:16:54;;;;;;;4.30;2.75;;;2.20;68.00;;;;;;5008311;28;20033;-88
2021/03/20 07:19:19;;;;;;;5.32;2.60;;;2.30;67.70;;;;;;4997254;28;20515;-89
2021/03/20 07:22:04;;;;;;;3.60;2.60;;;2.40;67.50;;;;;;5001504;28;20030;-88
2021/03/20 07:24:35;;;;;;;4.70;2.40;;;2.40;67.00;;;;;;4994385;28;20027;-89
2021/03/20 07:27:12;;;;;;;2.20;2.00;;;2.70;66.90;;;;;;4981718;28;20034;-89
2021/03/20 07:29:50;;;;;;;3.47;2.03;;;3.20;66.10;;;;;;4975979;28;20108;-89
2021/03/20 07:32:26;;;;;;;2.60;2.10;;;3.50;65.10;;;;;;4987409;28;20026;-89
2021/03/20 07:34:58;;;;;;;2.95;2.13;;;3.70;64.70;;;;;;4982822;28;20029;-89
2021/03/20 07:37:29;;;;;;;3.20;2.25;;;3.90;64.30;;;;;;4983865;28;20426;-88
2021/03/20 07:40:01;;;;;;;4.40;2.45;;;4.30;63.90;;;;;;4981020;28;20089;-89
2021/03/20 07:42:41;;;;;;;3.35;2.22;;;4.60;63.30;;;;;;4982305;28;20018;-89
2021/03/20 07:45:17;;;;;;;3.60;2.30;;;4.90;62.60;;;;;;4986607;28;20050;-88
2021/03/20 07:48:04;;;;;;;3.50;2.30;;;4.90;62.60;;;;;;4986735;28;20491;-88
2021/03/20 07:50:42;;;;;;;3.63;2.13;;;5.20;62.60;;;;;;4995034;28;20054;-89
2021/03/20 07:53:18;;;;;;;3.88;2.70;;;5.50;62.20;;;;;;4976290;28;20025;-89
2021/03/20 07:55:57;;;;;;;2.92;2.30;;;5.60;61.40;;;;;;4975490;28;20540;-89
2021/03/20 07:58:36;;;;;;;3.97;2.80;;;5.50;60.80;;;;;;4993995;28;20034;-89
2021/03/20 08:01:06;;;;;;;2.60;2.40;;;5.50;62.10;;;;;;4985590;28;20556;-89
2021/03/20 08:03:45;;;;;;;1.75;1.63;;;5.80;61.20;;;;;;4994221;28;20049;-88
2021/03/20 08:06:24;;;;;;;3.38;1.88;;;5.90;60.20;;;;;;4981587;28;20026;-90
2021/03/20 08:09:22;;;;;;;3.75;1.65;;;5.80;59.70;;;;;;4979088;28;20054;-90
2021/03/20 08:11:51;;;;;;;2.40;1.50;;;6.10;58.90;;;;;;4989349;28;20225;-88
2021/03/20 08:14:32;;;;;;;4.43;1.83;;;6.50;57.50;;;;;;4987747;28;20040;-90
2021/03/20 08:17:19;;;;;;;2.63;2.13;;;6.90;56.30;;;;;;4983820;28;20034;-90
2021/03/20 08:19:47;;;;;;;3.40;2.88;;;7.20;55.80;;;;;;4979195;28;20046;-91
2021/03/20 08:22:39;;;;;;;3.03;2.83;;;7.60;55.30;;;;;;4977609;28;20480;-90
2021/03/20 08:25:27;;;;;;;3.28;2.97;;;7.90;54.60;;;;;;4982616;28;20413;-90
2021/03/20 08:28:06;;;;;;;3.58;2.90;;;8.30;53.90;;;;;;4978478;28;20516;-89
2021/03/20 08:31:22;;;;;;;3.58;3.08;;;8.60;53.00;;;;;;4987940;28;20131;-90
2021/03/20 08:34:06;;;;;;;3.03;2.72;;;8.90;53.60;;;;;;4984401;28;20034;-91
2021/03/20 08:36:38;;;;;;;2.80;2.60;;;8.50;53.50;;;;;;4988167;28;20030;-90
2021/03/20 08:39:23;;;;;;;3.45;2.70;;;8.40;53.00;;;;;;4988556;28;20029;-90
2021/03/20 08:42:15;;;;;;;2.47;2.22;;;8.50;53.60;;;;;;4989388;28;20322;-90
2021/03/20 08:45:09;;;;;;;5.85;2.17;;;8.40;54.10;;;;;;4993500;28;20032;-90
2021/03/20 08:47:37;;;;;;;1.90;1.50;;;8.50;54.20;;;;;;4986725;28;20026;-92
2021/03/20 08:50:13;;;;;;;2.47;1.52;;;8.60;54.20;;;;;;4993733;28;20027;-92
2021/03/20 08:52:50;;;;;;;3.00;1.70;;;8.50;54.00;;;;;;4995312;28;20030;-92
2021/03/20 08:55:22;;;;;;;1.65;1.55;;;8.60;54.50;;;;;;4993376;28;20145;-92
2021/03/20 08:57:52;;;;;;;1.63;1.50;;;8.70;54.20;;;;;;4981570;28;20033;-91
2021/03/20 09:00:38;;;;;;;2.53;1.95;;;8.70;54.10;;;;;;4987000;28;20057;-91
2021/03/20 09:03:10;;;;;;;3.95;1.63;;;8.80;53.70;;;;;;4995712;28;20496;-91
2021/03/20 09:05:47;;;;;;;1.80;1.70;;;8.90;53.20;;;;;;4983373;28;20053;-91
2021/03/20 09:08:39;;;;;;;2.08;1.65;;;9.00;53.00;;;;;;5000944;28;20038;-92
2021/03/20 09:12:00;;;;;;;2.20;1.50;;;9.00;52.60;;;;;;4976077;28;20069;-90
2021/03/20 09:14:44;;;;;;;10.55;5.93;;;9.00;52.80;;;;;;4939937;28;20040;-91
2021/03/20 09:17:15;;;;;;;2.42;1.70;;;8.90;53.30;;;;;;4979752;28;20023;-90
2021/03/20 09:19:55;;;;;;;1.80;1.58;;;8.80;52.70;;;;;;4981062;28;20049;-91
2021/03/20 09:22:26;;;;;;;1.77;1.30;;;8.90;52.30;;;;;;4983203;28;20037;-91
2021/03/20 09:24:56;;;;;;;2.97;1.42;;;9.10;52.20;;;;;;4983630;28;20125;-90
2021/03/20 09:28:00;;;;;;;2.78;1.50;;;9.10;51.00;;;;;;4993174;28;20026;-88
2021/03/20 09:30:39;;;;;;;1.67;1.55;;;9.00;51.30;;;;;;4999134;28;20033;-91
2021/03/20 09:33:32;;;;;;;2.22;1.80;;;9.00;50.90;;;;;;5007702;28;20061;-89
2021/03/20 09:36:03;;;;;;;3.53;1.70;;;8.90;51.30;;;;;;4992749;28;20034;-89
2021/03/20 09:38:35;;;;;;;2.45;1.45;;;8.90;51.00;;;;;;4999425;28;20550;-89
2021/03/20 09:41:13;;;;;;;2.08;1.55;;;8.70;51.30;;;;;;5016356;28;20169;-88
2021/03/20 09:43:47;;;;;;;1.80;1.52;;;8.40;51.60;;;;;;5000386;28;20426;-89
2021/03/20 09:46:31;;;;;;;1.85;1.50;;;8.30;51.90;;;;;;4997873;28;20018;-89
2021/03/20 09:48:57;;;;;;;2.00;1.40;;;8.20;52.30;;;;;;4999845;28;20029;-91
2021/03/20 09:51:59;;;;;;;2.80;1.38;;;8.10;52.10;;;;;;4999151;28;20037;-91
2021/03/20 09:54:25;;;;;;;1.83;1.35;;;8.00;52.40;;;;;;4998356;28;20029;-92
2021/03/20 09:56:54;;;;;;;2.72;1.83;;;8.20;52.60;;;;;;4998103;28;20026;-91
2021/03/20 09:59:29;;;;;;;5.30;1.70;;;8.30;52.60;;;;;;5008830;28;20504;-91
2021/03/20 10:02:00;;;;;;;3.03;1.70;;;8.50;52.10;;;;;;5010626;28;20026;-91
2021/03/20 10:04:58;;;;;;;1.70;1.40;;;8.60;52.10;;;;;;4997663;28;20018;-91
2021/03/20 10:07:25;;;;;;;2.17;1.50;;;8.50;51.80;;;;;;4998195;28;20018;-91
2021/03/20 10:09:53;;;;;;;2.40;1.60;;;8.40;51.90;;;;;;4996638;28;20480;-90
2021/03/20 10:12:36;;;;;;;3.53;1.58;;;8.40;51.70;;;;;;4994535;28;20053;-91
2021/03/20 10:15:23;;;;;;;1.75;1.60;;;8.50;52.00;;;;;;5009750;28;20036;-91
2021/03/20 10:18:04;;;;;;;3.25;1.83;;;8.70;52.00;;;;;;5003011;28;20056;-89
2021/03/20 10:20:39;;;;;;;2.08;1.55;;;8.50;52.00;;;;;;4996995;28;20077;-89
2021/03/20 10:23:16;;;;;;;2.45;1.60;;;8.10;51.90;;;;;;4977391;28;20033;-90
2021/03/20 10:25:50;;;;;;;1.50;1.40;;;7.60;52.30;;;;;;4984714;28;20053;-90
2021/03/20 10:28:19;;;;;;;2.53;1.45;;;7.40;52.20;;;;;;4993652;28;20026;-90
2021/03/20 10:31:06;;;;;;;1.58;1.13;;;7.30;52.10;;;;;;4997641;28;20030;-90
2021/03/20 10:33:35;;;;;;;2.83;1.50;;;7.30;51.80;;;;;;4986457;28;20437;-90
2021/03/20 10:36:21;;;;;;;1.70;1.60;;;7.30;51.50;;;;;;4985144;28;20446;-90
2021/03/20 10:38:49;;;;;;;2.08;1.77;;;7.30;51.90;;;;;;4996764;28;20029;-92
2021/03/20 10:41:19;;;;;;;2.50;1.95;;;7.40;51.90;;;;;;4990650;28;20112;-90
2021/03/20 10:43:49;;;;;;;2.55;1.67;;;7.60;52.00;;;;;;4994472;28;20110;-89
2021/03/20 10:46:30;;;;;;;2.95;1.60;;;7.60;51.80;;;;;;4996138;28;20464;-91
2021/03/20 10:48:58;;;;;;;2.20;1.77;;;7.80;51.40;;;;;;4995066;28;20385;-89
2021/03/20 10:51:28;;;;;;;2.97;1.60;;;7.90;51.30;;;;;;4996251;28;20022;-88
2021/03/20 10:54:04;;;;;;;2.53;1.80;;;7.90;50.50;;;;;;4990378;28;20026;-91
2021/03/20 10:56:36;;;;;;;2.90;1.58;;;8.00;50.80;;;;;;4997971;28;20061;-91
2021/03/20 10:59:15;;;;;;;5.25;1.75;;;8.10;50.80;;;;;;4993945;28;20060;-91
2021/03/20 11:01:40;;;;;;;2.95;2.03;;;8.30;51.20;;;;;;4989903;28;20060;-92
2021/03/20 11:04:13;;;;;;;1.67;1.58;;;8.30;51.10;;;;;;4996001;28;20108;-90
2021/03/20 11:06:38;;;;;;;2.47;1.90;;;8.10;50.80;;;;;;4989461;28;20033;-91
2021/03/20 11:09:07;;;;;;;2.92;1.77;;;7.90;51.30;;;;;;4983943;28;20034;-89
2021/03/20 11:11:38;;;;;;;2.72;1.80;;;7.90;51.00;;;;;;4989384;28;20037;-89
2021/03/20 11:14:14;;;;;;;2.28;1.77;;;7.80;50.80;;;;;;4976609;28;20076;-89
2021/03/20 11:19:15;;;;;;;1.80;1.70;;;7.90;50.50;;;;;;5011069;28;20049;-66
2021/03/20 11:21:43;;;;;;;2.42;1.50;;;7.80;50.30;;;;;;4987526;28;20062;-66
2021/03/20 11:24:34;;;;;;;1.50;1.38;;;7.70;50.40;;;;;;4977940;28;20397;-67
2021/03/20 11:27:31;;;;;;;1.50;1.40;;;7.80;50.60;;;;;;4994744;28;20033;-66
2021/03/20 11:30:03;;;;;;;2.92;1.67;;;7.90;50.50;;;;;;5000807;28;20030;-66
2021/03/20 11:32:35;;;;;;;2.08;1.50;;;7.90;50.00;;;;;;4975965;28;20077;-67
2021/03/20 11:35:04;;;;;;;1.67;1.58;;;7.90;50.10;;;;;;4994602;28;20493;-67
2021/03/20 11:37:31;;;;;;;3.33;1.98;;;7.80;49.70;;;;;;4994555;28;20038;-67
2021/03/20 11:39:58;;;;;;;1.95;1.80;;;7.80;50.50;;;;;;4982127;28;20038;-68
2021/03/20 11:42:39;;;;;;;3.05;2.10;;;8.10;50.10;;;;;;4992627;28;20022;-67
2021/03/20 11:45:18;;;;;;;2.67;1.90;;;8.10;49.50;;;;;;4981041;28;20022;-67
2021/03/20 11:47:53;;;;;;;1.58;1.48;;;8.00;49.70;;;;;;4986915;28;20082;-67
2021/03/20 11:50:33;;;;;;;2.47;2.10;;;8.10;49.60;;;;;;4992819;28;20513;-67
2021/03/20 11:53:17;;;;;;;4.18;2.92;;;8.10;49.80;;;;;;4975254;28;20041;-68
2021/03/20 11:55:43;;;;;;;2.55;2.03;;;8.10;50.00;;;;;;4974801;28;20027;-67
2021/03/20 11:58:31;;;;;;;2.33;2.00;;;8.30;50.10;;;;;;4974854;28;20230;-66
2021/03/20 12:01:28;;;;;;;3.05;2.28;;;8.30;49.30;;;;;;4992843;28;20037;-66
2021/03/20 12:03:55;;;;;;;2.20;1.83;;;8.60;50.20;;;;;;4975903;28;20022;-66
2021/03/20 12:06:31;;;;;;;2.53;1.98;;;8.70;49.50;;;;;;4979108;28;20458;-66
2021/03/20 12:09:00;;;;;;;2.67;1.70;;;8.70;48.90;;;;;;4978705;28;20029;-67
2021/03/20 12:11:44;;;;;;;2.20;1.90;;;8.60;49.20;;;;;;4997011;28;20037;-66
2021/03/20 12:14:39;;;;;;;2.83;1.40;;;8.60;49.00;;;;;;4997242;28;20022;-66
2021/03/20 12:17:05;;;;;;;2.97;1.58;;;8.60;48.30;;;;;;4986811;28;20044;-66
2021/03/20 12:19:32;;;;;;;2.05;1.73;;;8.50;48.70;;;;;;5001619;28;20033;-66
2021/03/20 12:22:07;;;;;;;3.58;1.80;;;8.40;48.70;;;;;;4998154;28;20076;-66
2021/03/20 12:24:45;;;;;;;5.38;1.95;;;8.40;48.50;;;;;;4991446;28;20669;-66
2021/03/20 12:27:33;;;;;;;2.08;1.77;;;8.40;48.10;;;;;;4978784;28;20022;-66
2021/03/20 12:30:16;;;;;;;2.08;1.70;;;8.30;48.70;;;;;;4978779;28;20033;-66
2021/03/20 12:32:44;;;;;;;1.92;1.77;;;8.50;48.90;;;;;;4978444;28;20035;-67
2021/03/20 12:35:16;;;;;;;4.43;2.00;;;8.50;48.70;;;;;;4978264;28;20026;-68
2021/03/20 12:37:41;;;;;;;2.17;1.60;;;8.70;48.90;;;;;;4978529;28;20026;-68
2021/03/20 12:40:08;;;;;;;2.50;1.90;;;8.60;48.20;;;;;;4981093;28;20125;-67
2021/03/20 12:42:33;;;;;;;3.25;1.98;;;8.40;48.20;;;;;;4985524;28;20030;-67
2021/03/20 12:44:59;;;;;;;2.42;1.85;;;8.40;48.30;;;;;;4977910;28;20034;-66
2021/03/20 12:47:25;;;;;;;1.90;1.80;;;8.20;48.40;;;;;;4978478;28;20093;-66
2021/03/20 12:49:51;;;;;;;1.70;1.60;;;8.20;48.20;;;;;;4978151;28;20026;-67
2021/03/20 12:52:20;;;;;;;2.35;1.63;;;8.20;48.00;;;;;;4988254;28;20451;-67
2021/03/20 12:54:50;;;;;;;2.47;1.70;;;8.40;47.80;;;;;;4988200;28;20117;-67
2021/03/20 12:57:20;;;;;;;5.15;1.67;;;8.50;47.90;;;;;;4997518;28;20022;-66
2021/03/20 12:59:46;;;;;;;2.35;1.70;;;8.60;47.60;;;;;;4979164;28;20125;-66
2021/03/20 13:02:12;;;;;;;1.75;1.60;;;8.90;48.00;;;;;;4978655;28;20061;-67
2021/03/20 13:04:39;;;;;;;1.67;1.48;;;9.00;47.80;;;;;;4982506;28;20385;-67
2021/03/20 13:07:06;;;;;;;2.42;1.60;;;9.00;47.50;;;;;;4982485;28;20463;-66
2021/03/20 13:09:33;;;;;;;3.75;1.80;;;9.10;47.30;;;;;;4977960;28;20041;-67
2021/03/20 13:11:58;;;;;;;3.65;1.80;;;9.10;47.20;;;;;;4977701;28;20061;-67
2021/03/20 13:14:24;;;;;;;3.38;1.75;;;9.00;46.90;;;;;;4994982;28;20038;-67
2021/03/20 13:16:50;;;;;;;2.63;1.80;;;8.80;46.80;;;;;;4996952;28;20030;-67
2021/03/20 13:19:15;;;;;;;3.42;1.65;;;8.60;46.80;;;;;;5004931;28;20504;-67
2021/03/20 13:21:41;;;;;;;2.17;1.48;;;8.50;47.00;;;;;;4987328;28;20037;-67
2021/03/20 13:24:07;;;;;;;2.70;1.80;;;8.30;47.10;;;;;;4977954;28;20026;-67
2021/03/20 13:26:32;;;;;;;2.08;1.65;;;8.30;47.40;;;;;;5012420;28;20025;-67
2021/03/20 13:28:58;;;;;;;1.90;1.70;;;8.40;47.40;;;;;;4996967;28;20413;-67
2021/03/20 13:31:24;;;;;;;2.20;1.60;;;8.70;46.50;;;;;;4996808;28;20113;-67
2021/03/20 13:33:50;;;;;;;2.72;1.70;;;8.70;46.40;;;;;;4996475;28;20026;-67
2021/03/20 13:36:16;;;;;;;2.28;1.70;;;8.90;45.90;;;;;;4996748;28;20061;-68
2021/03/20 13:38:42;;;;;;;2.00;1.40;;;8.90;46.00;;;;;;4996390;28;20030;-67
2021/03/20 13:41:08;;;;;;;7.43;2.00;;;8.90;46.10;;;;;;4996544;28;20108;-67
2021/03/20 13:43:34;;;;;;;1.77;1.67;;;8.80;45.80;;;;;;4995752;28;20022;-68